Time;durP1;ratioP1;P1;durP2;ratioP2;P2;SDS_P1;SDS_P2;PMS_P1;PMS_P2;Temp;Humidity;BMP_temperature;BMP_pressure;BME280_temperature;BME280_humidity;BME280_pressure;Samples;Min_cycle;Max_cycle;Signal;HPM_P1;HPM_P2
2021/07/14 00:00:39;;;;;;;2.53;0.77;;;;;;;-142.37;100.00;59669.53;5036462;28;20022;-56
2021/07/14 00:03:04;;;;;;;2.47;0.60;;;;;;;-142.37;100.00;59669.53;5036609;28;20100;-56
2021/07/14 00:05:32;;;;;;;0.68;0.30;;;;;;;-142.37;100.00;59669.53;5036606;28;20108;-56
2021/07/14 00:07:58;;;;;;;0.88;0.45;;;;;;;-142.37;100.00;59669.53;5036397;28;20143;-55
2021/07/14 00:10:30;;;;;;;0.65;0.28;;;;;;;-142.37;100.00;59669.53;5035292;28;20104;-55
2021/07/14 00:13:23;;;;;;;1.60;0.30;;;;;;;-142.37;100.00;59669.53;5036286;28;20025;-56
2021/07/14 00:24:00;;;;;;;1.45;0.50;;;;;;;-142.37;100.00;59669.53;5015833;28;20033;-56
2021/07/14 00:26:25;;;;;;;0.55;0.50;;;;;;;-142.37;100.00;59669.53;5016454;28;20052;-56
2021/07/14 00:28:51;;;;;;;0.25;0.22;;;;;;;-142.37;100.00;59669.53;5015720;28;20473;-56
2021/07/14 00:31:18;;;;;;;0.85;0.40;;;;;;;-142.37;100.00;59669.53;5016317;28;20021;-56
2021/07/14 00:33:45;;;;;;;2.53;1.17;;;;;;;-142.37;100.00;59669.53;5016343;28;20461;-56
2021/07/14 00:36:11;;;;;;;0.52;0.28;;;;;;;-142.37;100.00;59669.53;5016095;28;20400;-56
2021/07/14 00:38:37;;;;;;;1.02;0.35;;;;;;;-142.37;100.00;59669.53;5016147;28;20029;-56
2021/07/14 00:41:04;;;;;;;0.80;0.40;;;;;;;-142.37;100.00;59669.53;5015829;28;20022;-56
2021/07/14 00:43:30;;;;;;;1.13;0.38;;;;;;;-142.37;100.00;59669.53;5016166;28;20025;-56
2021/07/14 00:46:07;;;;;;;0.85;0.40;;;;;;;-142.37;100.00;59669.53;5016111;28;20033;-56
2021/07/14 00:48:32;;;;;;;0.65;0.40;;;;;;;-142.37;100.00;59669.53;5015918;28;20030;-56
2021/07/14 00:50:57;;;;;;;0.77;0.40;;;;;;;-142.37;100.00;59669.53;5015823;28;20072;-56
2021/07/14 00:53:23;;;;;;;0.95;0.40;;;;;;;-142.37;100.00;59669.53;5015915;28;20018;-56
2021/07/14 00:55:49;;;;;;;0.35;0.32;;;;;;;-142.37;100.00;59669.53;5016083;28;20053;-56
2021/07/14 00:58:14;;;;;;;0.98;0.65;;;;;;;-142.37;100.00;59669.53;5015597;28;20105;-56
2021/07/14 01:00:39;;;;;;;0.75;0.40;;;;;;;-142.37;100.00;59669.53;5015802;28;20484;-56
2021/07/14 01:03:06;;;;;;;0.75;0.55;;;;;;;-142.37;100.00;59669.53;5014521;28;20064;-56
2021/07/14 01:05:37;;;;;;;2.10;0.40;;;;;;;-142.37;100.00;59669.53;5015665;28;20025;-56
2021/07/14 01:08:18;;;;;;;1.63;0.32;;;;;;;-142.37;100.00;59669.53;5015380;28;20025;-56
2021/07/14 01:10:49;;;;;;;1.15;0.43;;;;;;;-142.37;100.00;59669.53;5015611;28;20036;-56
2021/07/14 01:13:23;;;;;;;1.05;0.40;;;;;;;-142.37;100.00;59669.53;5015633;28;20064;-56
2021/07/14 01:16:01;;;;;;;0.50;0.40;;;;;;;-142.37;100.00;59669.53;5015196;28;20397;-55
2021/07/14 01:18:47;;;;;;;0.38;0.30;;;;;;;-142.37;100.00;59669.53;5028518;28;20026;-56
2021/07/14 01:21:38;;;;;;;0.80;0.40;;;;;;;-142.37;100.00;59669.53;5035165;28;20036;-56
2021/07/14 01:24:12;;;;;;;0.73;0.45;;;;;;;-142.37;100.00;59669.53;5030328;28;20120;-56
2021/07/14 01:26:56;;;;;;;0.65;0.40;;;;;;;-142.37;100.00;59669.53;5035198;28;20075;-56
2021/07/14 01:29:22;;;;;;;1.48;0.40;;;;;;;-142.37;100.00;59669.53;5035058;28;20471;-56
2021/07/14 01:31:50;;;;;;;1.13;0.50;;;;;;;-142.37;100.00;59669.53;5034348;28;20116;-56
2021/07/14 01:34:18;;;;;;;0.82;0.20;;;;;;;-142.37;100.00;59669.53;5015138;28;20583;-55
2021/07/14 01:36:46;;;;;;;1.15;0.30;;;;;;;-142.37;100.00;59669.53;5014657;28;20452;-55
2021/07/14 01:39:13;;;;;;;1.67;0.40;;;;;;;-142.37;100.00;59669.53;5014803;28;20037;-55
2021/07/14 01:41:43;;;;;;;1.73;0.57;;;;;;;-142.37;100.00;59669.53;5015174;28;20380;-56
2021/07/14 01:44:09;;;;;;;0.40;0.40;;;;;;;-142.37;100.00;59669.53;5014808;28;20457;-56
2021/07/14 01:46:37;;;;;;;1.85;0.60;;;;;;;-142.37;100.00;59669.53;5013562;28;20032;-56
2021/07/14 01:49:07;;;;;;;1.80;0.55;;;;;;;-142.37;100.00;59669.53;5014773;28;20053;-55
2021/07/14 01:51:38;;;;;;;1.13;0.60;;;;;;;-142.37;100.00;59669.53;5014871;28;20018;-55
2021/07/14 01:54:04;;;;;;;1.67;0.38;;;;;;;-142.37;100.00;59669.53;5014447;28;20033;-56
2021/07/14 01:56:33;;;;;;;0.40;0.22;;;;;;;-142.37;100.00;59669.53;5014905;28;20026;-55
2021/07/14 01:59:00;;;;;;;0.52;0.50;;;;;;;-142.37;100.00;59669.53;5014428;28;20050;-56
2021/07/14 02:01:26;;;;;;;0.93;0.60;;;;;;;-142.37;100.00;59669.53;5014388;28;20131;-56
2021/07/14 02:06:38;;;;;;;1.90;0.50;;;;;;;-142.37;100.00;59669.53;5017638;28;20036;-56
2021/07/14 02:09:03;;;;;;;0.40;0.40;;;;;;;-142.37;100.00;59669.53;5014510;28;20080;-56
2021/07/14 02:11:29;;;;;;;4.35;0.65;;;;;;;-142.37;100.00;59669.53;5014559;28;20399;-56
2021/07/14 02:13:56;;;;;;;0.70;0.50;;;;;;;-142.37;100.00;59669.53;5014431;28;20415;-55
2021/07/14 02:16:23;;;;;;;0.52;0.40;;;;;;;-142.37;100.00;59669.53;5014050;28;20026;-55
2021/07/14 02:18:54;;;;;;;1.52;0.43;;;;;;;-142.37;100.00;59669.53;5030441;28;20018;-56
2021/07/14 02:21:20;;;;;;;1.02;0.40;;;;;;;-142.37;100.00;59669.53;5034066;28;20236;-56
2021/07/14 02:23:45;;;;;;;1.05;0.40;;;;;;;-142.37;100.00;59669.53;5033869;28;20059;-56
2021/07/14 02:26:11;;;;;;;1.95;0.40;;;;;;;-142.37;100.00;59669.53;5034038;28;20082;-56
2021/07/14 02:28:36;;;;;;;1.30;0.47;;;;;;;-142.37;100.00;59669.53;5033966;28;20464;-55
2021/07/14 02:31:02;;;;;;;0.60;0.50;;;;;;;-142.37;100.00;59669.53;5033692;28;20032;-56
2021/07/14 02:33:29;;;;;;;0.82;0.60;;;;;;;-142.37;100.00;59669.53;5033895;28;20075;-55
2021/07/14 02:36:00;;;;;;;0.52;0.52;;;;;;;-142.37;100.00;59669.53;5033845;28;20032;-56
2021/07/14 02:38:36;;;;;;;1.27;0.50;;;;;;;-142.37;100.00;59669.53;5033656;28;20099;-56
2021/07/14 02:41:13;;;;;;;0.50;0.50;;;;;;;-142.37;100.00;59669.53;5033506;28;20020;-56
2021/07/14 02:43:43;;;;;;;1.42;0.50;;;;;;;-142.37;100.00;59669.53;5033817;28;20445;-56
2021/07/14 02:46:18;;;;;;;1.73;0.50;;;;;;;-142.37;100.00;59669.53;5033471;28;20028;-56
2021/07/14 02:48:45;;;;;;;;;;;;;;;-142.37;100.00;59669.53;5034171;28;20084;-55
2021/07/14 02:51:13;;;;;;;2.10;0.55;;;;;;;-142.37;100.00;59669.53;5033417;28;19924;-55
2021/07/14 02:53:48;;;;;;;2.40;0.82;;;;;;;-142.37;100.00;59669.53;5032227;28;20044;-55
2021/07/14 02:56:18;;;;;;;0.90;0.52;;;;;;;-142.37;100.00;59669.53;5032372;28;20025;-55
2021/07/14 02:58:48;;;;;;;2.08;0.60;;;;;;;-142.37;100.00;59669.53;5033326;28;20037;-56
2021/07/14 03:01:15;;;;;;;0.75;0.35;;;;;;;-142.37;100.00;59669.53;5033158;28;20113;-55
2021/07/14 03:03:42;;;;;;;0.63;0.30;;;;;;;-142.37;100.00;59669.53;5033093;28;20033;-56
2021/07/14 03:06:09;;;;;;;3.80;0.50;;;;;;;-142.37;100.00;59669.53;5032997;28;20029;-55
2021/07/14 03:08:34;;;;;;;3.10;0.38;;;;;;;-142.37;100.00;59669.53;5031988;28;20491;-55
2021/07/14 03:11:04;;;;;;;0.98;0.45;;;;;;;-142.37;100.00;59669.53;5033217;28;20045;-55
2021/07/14 03:13:31;;;;;;;1.42;0.40;;;;;;;-142.37;100.00;59669.53;5033232;28;20029;-55
2021/07/14 03:15:58;;;;;;;0.85;0.38;;;;;;;-142.37;100.00;59669.53;5032978;28;20040;-55
2021/07/14 03:18:27;;;;;;;0.43;0.32;;;;;;;-142.37;100.00;59669.53;5018778;28;20098;-55
2021/07/14 03:20:54;;;;;;;0.90;0.35;;;;;;;-142.37;100.00;59669.53;5019997;28;20056;-55
2021/07/14 03:23:21;;;;;;;0.30;0.30;;;;;;;-142.37;100.00;59669.53;5025085;28;20239;-55
2021/07/14 03:25:50;;;;;;;0.30;0.22;;;;;;;-142.37;100.00;59669.53;5012214;28;20033;-56
2021/07/14 03:28:17;;;;;;;1.92;0.50;;;;;;;-142.37;100.00;59669.53;5013071;28;20022;-55
2021/07/14 03:30:42;;;;;;;1.52;0.40;;;;;;;-142.37;100.00;59669.53;5013341;28;20053;-56
2021/07/14 03:33:08;;;;;;;0.88;0.55;;;;;;;-142.37;100.00;59669.53;5013064;28;20029;-55
2021/07/14 03:35:34;;;;;;;2.17;0.52;;;;;;;-142.37;100.00;59669.53;5013161;28;20030;-55
2021/07/14 03:38:03;;;;;;;0.32;0.10;;;;;;;-142.37;100.00;59669.53;5013215;28;20054;-56
2021/07/14 03:40:30;;;;;;;0.77;0.20;;;;;;;-142.37;100.00;59669.53;5013064;28;20108;-56
2021/07/14 03:42:56;;;;;;;2.28;0.40;;;;;;;-142.37;100.00;59669.53;5012055;28;20032;-56
2021/07/14 03:45:23;;;;;;;1.70;0.20;;;;;;;-142.37;100.00;59669.53;5013112;28;20022;-56
2021/07/14 03:47:49;;;;;;;0.43;0.20;;;;;;;-142.37;100.00;59669.53;5012471;28;20037;-56
2021/07/14 03:50:15;;;;;;;1.92;0.47;;;;;;;-142.37;100.00;59669.53;5012326;28;20060;-56
2021/07/14 03:52:41;;;;;;;2.80;0.40;;;;;;;-142.37;100.00;59669.53;5013199;28;20101;-56
2021/07/14 03:55:10;;;;;;;0.47;0.20;;;;;;;-142.37;100.00;59669.53;5013100;28;20050;-56
2021/07/14 03:57:37;;;;;;;0.77;0.20;;;;;;;-142.37;100.00;59669.53;5013176;28;20473;-56
2021/07/14 04:00:04;;;;;;;0.45;0.38;;;;;;;-142.37;100.00;59669.53;5012875;28;20467;-56
2021/07/14 04:02:29;;;;;;;0.95;0.30;;;;;;;-142.37;100.00;59669.53;5012956;28;20022;-57
2021/07/14 04:04:54;;;;;;;0.85;0.22;;;;;;;-142.37;100.00;59669.53;5013037;28;20375;-56
2021/07/14 04:07:25;;;;;;;0.80;0.25;;;;;;;-142.37;100.00;59669.53;5012138;28;20033;-56
2021/07/14 04:09:51;;;;;;;0.22;0.10;;;;;;;-142.37;100.00;59669.53;5012839;28;20044;-56
2021/07/14 04:12:16;;;;;;;0.85;0.28;;;;;;;-142.37;100.00;59669.53;5012757;28;20025;-56
2021/07/14 04:14:42;;;;;;;1.45;0.32;;;;;;;-142.37;100.00;59669.53;5013486;28;20479;-56
2021/07/14 04:17:08;;;;;;;0.32;0.10;;;;;;;-142.37;100.00;59669.53;5014816;28;20032;-56
2021/07/14 04:19:34;;;;;;;0.60;0.30;;;;;;;-142.37;100.00;59669.53;5032662;28;20061;-56
2021/07/14 04:22:01;;;;;;;0.90;0.40;;;;;;;-142.37;100.00;59669.53;5032461;28;20071;-56
2021/07/14 04:24:27;;;;;;;1.38;0.30;;;;;;;-142.37;100.00;59669.53;5032519;28;20499;-57
2021/07/14 04:26:52;;;;;;;0.75;0.30;;;;;;;-142.37;100.00;59669.53;5032033;28;20030;-57
2021/07/14 04:29:17;;;;;;;3.60;0.50;;;;;;;-142.37;100.00;59669.53;5032544;28;20025;-56
2021/07/14 04:31:44;;;;;;;0.85;0.28;;;;;;;-142.37;100.00;59669.53;5032550;28;20472;-56
2021/07/14 04:34:09;;;;;;;0.95;0.50;;;;;;;-142.37;100.00;59669.53;5032482;28;20018;-56
2021/07/14 04:36:36;;;;;;;0.65;0.20;;;;;;;-142.37;100.00;59669.53;5032709;28;20514;-57
2021/07/14 04:39:04;;;;;;;0.95;0.32;;;;;;;-142.37;100.00;59669.53;5033575;28;20108;-57
2021/07/14 04:41:29;;;;;;;0.63;0.43;;;;;;;-142.37;100.00;59669.53;5035847;28;20203;-56
2021/07/14 04:43:58;;;;;;;0.30;0.20;;;;;;;-142.37;100.00;59669.53;5035942;28;20122;-56
2021/07/14 04:46:23;;;;;;;0.45;0.20;;;;;;;-142.37;100.00;59669.53;5035410;28;20381;-54
2021/07/14 04:48:49;;;;;;;1.05;0.17;;;;;;;-142.37;100.00;59669.53;5035880;28;20527;-53
2021/07/14 04:51:14;;;;;;;0.70;0.30;;;;;;;-142.37;100.00;59669.53;5028743;28;20026;-54
2021/07/14 04:53:39;;;;;;;0.98;0.30;;;;;;;-142.37;100.00;59669.53;5015203;28;20595;-54
2021/07/14 04:56:05;;;;;;;1.10;0.30;;;;;;;-142.37;100.00;59669.53;5015716;28;20132;-54
2021/07/14 04:58:30;;;;;;;0.65;0.20;;;;;;;-142.37;100.00;59669.53;5015570;28;20040;-54
2021/07/14 05:00:55;;;;;;;1.13;0.35;;;;;;;-142.37;100.00;59669.53;5015814;28;20041;-54
2021/07/14 05:03:23;;;;;;;1.33;0.40;;;;;;;-142.37;100.00;59669.53;5015718;28;20072;-54
2021/07/14 05:05:48;;;;;;;0.90;0.57;;;;;;;-142.37;100.00;59669.53;5015738;28;20026;-54
2021/07/14 05:08:13;;;;;;;0.68;0.30;;;;;;;-142.37;100.00;59669.53;5015853;28;20022;-54
2021/07/14 05:10:39;;;;;;;0.45;0.30;;;;;;;-142.37;100.00;59669.53;5015585;28;20076;-54
2021/07/14 05:13:05;;;;;;;1.83;0.30;;;;;;;-142.37;100.00;59669.53;5015580;28;20033;-54
2021/07/14 05:15:30;;;;;;;0.68;0.20;;;;;;;-142.37;100.00;59669.53;5015465;28;20040;-53
2021/07/14 05:17:55;;;;;;;0.80;0.30;;;;;;;-142.37;100.00;59669.53;5023968;28;20025;-53
2021/07/14 05:20:21;;;;;;;0.63;0.30;;;;;;;-142.37;100.00;59669.53;5033114;28;20095;-54
2021/07/14 05:22:47;;;;;;;0.93;0.20;;;;;;;-142.37;100.00;59669.53;5015429;28;20026;-54
2021/07/14 05:25:13;;;;;;;1.13;0.38;;;;;;;-142.37;100.00;59669.53;5030730;28;20033;-54
2021/07/14 05:27:38;;;;;;;0.30;0.30;;;;;;;-142.37;100.00;59669.53;5035154;28;20132;-54
2021/07/14 05:30:05;;;;;;;0.95;0.20;;;;;;;-142.37;100.00;59669.53;5034776;28;20036;-55
2021/07/14 05:32:31;;;;;;;1.27;0.30;;;;;;;-142.37;100.00;59669.53;5034645;28;20025;-54
2021/07/14 05:34:57;;;;;;;1.92;0.30;;;;;;;-142.37;100.00;59669.53;5034963;28;20044;-56
2021/07/14 05:37:22;;;;;;;0.55;0.32;;;;;;;-142.37;100.00;59669.53;5034863;28;20028;-56
2021/07/14 05:39:47;;;;;;;0.60;0.30;;;;;;;-142.37;100.00;59669.53;5034996;28;20529;-56
2021/07/14 05:42:12;;;;;;;1.08;0.32;;;;;;;-142.37;100.00;59669.53;5034754;28;20021;-56
2021/07/14 05:44:38;;;;;;;0.43;0.20;;;;;;;-142.37;100.00;59669.53;5034688;28;20104;-57
2021/07/14 05:47:03;;;;;;;2.67;0.40;;;;;;;-142.37;100.00;59669.53;5034593;28;20464;-57
2021/07/14 05:49:29;;;;;;;1.25;0.30;;;;;;;-142.37;100.00;59669.53;5034262;28;20044;-56
2021/07/14 05:51:54;;;;;;;1.90;0.50;;;;;;;-142.37;100.00;59669.53;5027056;28;20380;-56
2021/07/14 05:54:20;;;;;;;0.32;0.22;;;;;;;-142.37;100.00;59669.53;5022600;28;20025;-56
2021/07/14 05:56:46;;;;;;;1.60;0.50;;;;;;;-142.37;100.00;59669.53;5014791;28;20048;-56
2021/07/14 05:59:11;;;;;;;1.95;0.43;;;;;;;-142.37;100.00;59669.53;5032428;28;20049;-56
2021/07/14 06:01:37;;;;;;;0.40;0.30;;;;;;;-142.37;100.00;59669.53;5033351;28;20037;-56
2021/07/14 06:04:03;;;;;;;0.50;0.30;;;;;;;-142.37;100.00;59669.53;5033393;28;20380;-56
2021/07/14 06:06:29;;;;;;;0.80;0.32;;;;;;;-142.37;100.00;59669.53;5034459;28;20033;-56
2021/07/14 06:08:55;;;;;;;1.05;0.20;;;;;;;-142.37;100.00;59669.53;5034342;28;20379;-56
2021/07/14 06:11:20;;;;;;;0.80;0.30;;;;;;;-142.37;100.00;59669.53;5034276;28;20030;-56
2021/07/14 06:13:45;;;;;;;0.63;0.30;;;;;;;-142.37;100.00;59669.53;5034340;28;20032;-56
2021/07/14 06:16:11;;;;;;;1.08;0.32;;;;;;;-142.37;100.00;59669.53;5034057;28;20407;-56
2021/07/14 06:18:37;;;;;;;2.40;0.47;;;;;;;-142.37;100.00;59669.53;5019608;28;20033;-57
2021/07/14 06:21:03;;;;;;;0.50;0.20;;;;;;;-142.37;100.00;59669.53;5014152;28;20121;-56
2021/07/14 06:23:29;;;;;;;3.20;0.40;;;;;;;-142.37;100.00;59669.53;5014341;28;20105;-56
2021/07/14 06:25:54;;;;;;;0.55;0.20;;;;;;;-142.37;100.00;59669.53;5014129;28;20528;-56
2021/07/14 06:28:21;;;;;;;0.60;0.25;;;;;;;-142.37;100.00;59669.53;5031150;28;20025;-56
2021/07/14 06:30:46;;;;;;;0.82;0.25;;;;;;;-142.37;100.00;59669.53;5029773;28;20025;-57
2021/07/14 06:33:12;;;;;;;0.40;0.20;;;;;;;-142.37;100.00;59669.53;5025926;28;20469;-56
2021/07/14 06:35:38;;;;;;;1.27;0.40;;;;;;;-142.37;100.00;59669.53;5014058;28;20376;-56
2021/07/14 06:38:03;;;;;;;0.50;0.20;;;;;;;-142.37;100.00;59669.53;5019672;28;20029;-57
2021/07/14 06:40:29;;;;;;;0.68;0.25;;;;;;;-142.37;100.00;59669.53;5024950;28;20022;-56
2021/07/14 06:42:55;;;;;;;1.23;0.40;;;;;;;-142.37;100.00;59669.53;5018254;28;20033;-57
2021/07/14 06:45:23;;;;;;;1.30;0.30;;;;;;;-142.37;100.00;59669.53;5014882;28;20028;-56
2021/07/14 06:47:49;;;;;;;1.05;0.28;;;;;;;-142.37;100.00;59669.53;5022449;28;20419;-56
2021/07/14 06:50:15;;;;;;;0.70;0.38;;;;;;;-142.37;100.00;59669.53;5030857;28;20029;-56
2021/07/14 06:52:42;;;;;;;1.13;0.20;;;;;;;-142.37;100.00;59669.53;5024190;28;20072;-56
2021/07/14 06:55:09;;;;;;;0.60;0.20;;;;;;;-142.37;100.00;59669.53;5031241;28;20025;-56
2021/07/14 06:57:34;;;;;;;0.20;0.10;;;;;;;-142.37;100.00;59669.53;5033171;28;20384;-56
2021/07/14 07:00:00;;;;;;;0.60;0.30;;;;;;;-142.37;100.00;59669.53;5033025;28;20049;-56
2021/07/14 07:02:26;;;;;;;1.38;0.30;;;;;;;-142.37;100.00;59669.53;5030497;28;20071;-56
2021/07/14 07:04:51;;;;;;;1.60;0.40;;;;;;;-142.37;100.00;59669.53;5031210;28;20037;-56
2021/07/14 07:07:17;;;;;;;1.17;0.35;;;;;;;-142.37;100.00;59669.53;5032532;28;20045;-56
2021/07/14 07:09:44;;;;;;;1.45;0.50;;;;;;;-142.37;100.00;59669.53;5029505;28;20037;-56
2021/07/14 07:12:10;;;;;;;0.80;0.40;;;;;;;-142.37;100.00;59669.53;5025190;28;20025;-56
2021/07/14 07:14:35;;;;;;;1.02;0.40;;;;;;;-142.37;100.00;59669.53;5013519;28;20062;-56
2021/07/14 07:17:01;;;;;;;0.73;0.30;;;;;;;-142.37;100.00;59669.53;5019323;28;20060;-56
2021/07/14 07:19:26;;;;;;;1.55;0.35;;;;;;;-142.37;100.00;59669.53;5025958;28;20033;-56
2021/07/14 07:21:52;;;;;;;0.50;0.30;;;;;;;-142.37;100.00;59669.53;5026547;28;20473;-56
2021/07/14 07:24:17;;;;;;;0.88;0.38;;;;;;;-142.37;100.00;59669.53;5032508;28;20032;-56
2021/07/14 07:26:45;;;;;;;2.42;0.38;;;;;;;-142.37;100.00;59669.53;5032028;28;20136;-56
2021/07/14 07:29:11;;;;;;;2.20;0.70;;;;;;;-142.37;100.00;59669.53;5027156;28;20083;-56
2021/07/14 07:31:36;;;;;;;0.47;0.30;;;;;;;-142.37;100.00;59669.53;5012998;28;20022;-56
2021/07/14 07:34:02;;;;;;;1.13;0.32;;;;;;;-142.37;100.00;59669.53;5021876;28;20482;-56
2021/07/14 07:36:27;;;;;;;0.85;0.40;;;;;;;-142.37;100.00;59669.53;5026782;28;20026;-56
2021/07/14 07:38:53;;;;;;;0.57;0.30;;;;;;;-142.37;100.00;59669.53;5025128;28;20017;-56
2021/07/14 07:41:21;;;;;;;1.05;0.47;;;;;;;-142.37;100.00;59669.53;5025611;28;20464;-57
2021/07/14 07:43:46;;;;;;;0.88;0.30;;;;;;;-142.37;100.00;59669.53;5028104;28;20037;-58
2021/07/14 07:46:12;;;;;;;3.58;0.35;;;;;;;-142.37;100.00;59669.53;5018947;28;20080;-56
2021/07/14 07:48:38;;;;;;;0.63;0.40;;;;;;;-142.37;100.00;59669.53;5029863;28;20433;-56
2021/07/14 07:51:05;;;;;;;0.52;0.32;;;;;;;-142.37;100.00;59669.53;5023402;28;20076;-58
2021/07/14 07:53:31;;;;;;;1.88;0.52;;;;;;;-142.37;100.00;59669.53;5019699;28;20033;-58
2021/07/14 07:55:56;;;;;;;3.45;0.50;;;;;;;-142.37;100.00;59669.53;5018286;28;20034;-58
2021/07/14 07:58:21;;;;;;;2.72;0.70;;;;;;;-142.37;100.00;59669.53;5023821;28;20013;-57
2021/07/14 08:00:48;;;;;;;2.50;0.85;;;;;;;-142.37;100.00;59669.53;5025530;28;20029;-61
2021/07/14 08:03:13;;;;;;;0.57;0.40;;;;;;;-142.37;100.00;59669.53;5018416;28;20069;-60
2021/07/14 08:05:39;;;;;;;1.80;0.63;;;;;;;-142.37;100.00;59669.53;5031053;28;20021;-60
2021/07/14 08:08:05;;;;;;;2.00;0.65;;;;;;;-142.37;100.00;59669.53;5015625;28;20108;-60
2021/07/14 08:10:31;;;;;;;2.75;0.68;;;;;;;-142.37;100.00;59669.53;5031846;28;20667;-60
2021/07/14 08:12:56;;;;;;;1.13;0.30;;;;;;;-142.37;100.00;59669.53;5033616;28;20041;-60
2021/07/14 08:15:21;;;;;;;2.58;0.40;;;;;;;-142.37;100.00;59669.53;5030324;28;20460;-60
2021/07/14 08:17:47;;;;;;;1.48;0.30;;;;;;;-142.37;100.00;59669.53;5024409;28;20033;-60
2021/07/14 08:20:13;;;;;;;6.60;0.77;;;;;;;-142.37;100.00;59669.53;5036456;28;20029;-60
2021/07/14 08:22:38;;;;;;;1.48;0.50;;;;;;;-142.37;100.00;59669.53;5035979;28;20053;-60
2021/07/14 08:25:05;;;;;;;2.20;0.70;;;;;;;-142.37;100.00;59669.53;5036016;28;20467;-59
2021/07/14 08:27:31;;;;;;;2.92;0.50;;;;;;;-142.37;100.00;59669.53;5036156;28;20026;-60
2021/07/14 08:29:59;;;;;;;3.38;0.40;;;;;;;-142.37;100.00;59669.53;5036008;28;20044;-60
2021/07/14 08:32:26;;;;;;;3.42;0.50;;;;;;;-142.37;100.00;59669.53;5035881;28;20052;-61
2021/07/14 08:34:52;;;;;;;0.57;0.30;;;;;;;-142.37;100.00;59669.53;5031074;28;20021;-60
2021/07/14 08:37:17;;;;;;;0.25;0.22;;;;;;;-142.37;100.00;59669.53;5033055;28;20083;-61
2021/07/14 08:39:42;;;;;;;0.70;0.40;;;;;;;-142.37;100.00;59669.53;5034679;28;20104;-60
2021/07/14 08:42:10;;;;;;;0.52;0.28;;;;;;;-142.37;100.00;59669.53;5033364;28;20472;-61
2021/07/14 08:44:36;;;;;;;0.17;0.10;;;;;;;-142.37;100.00;59669.53;5035552;28;20068;-62
2021/07/14 08:47:02;;;;;;;1.10;0.43;;;;;;;-142.37;100.00;59669.53;5032350;28;20065;-61
2021/07/14 08:49:28;;;;;;;1.45;0.47;;;;;;;-142.37;100.00;59669.53;5020857;28;20037;-62
2021/07/14 08:51:53;;;;;;;0.30;0.20;;;;;;;-142.37;100.00;59669.53;5020141;28;20028;-62
2021/07/14 08:54:20;;;;;;;0.63;0.10;;;;;;;-142.37;100.00;59669.53;5022609;28;20022;-62
2021/07/14 08:56:46;;;;;;;0.32;0.25;;;;;;;-142.37;100.00;59669.53;5027037;28;20100;-62
2021/07/14 08:59:11;;;;;;;0.73;0.40;;;;;;;-142.37;100.00;59669.53;5048952;23;20043;-61
2021/07/14 09:01:36;;;;;;;0.50;0.25;;;;;;;-142.37;100.00;59669.53;5054417;28;20024;-62
2021/07/14 09:04:03;;;;;;;0.60;0.40;;;;;;;-142.37;100.00;59669.53;5052993;28;20048;-62
2021/07/14 09:06:30;;;;;;;0.82;0.20;;;;;;;-142.37;100.00;59669.53;5053624;28;20031;-62
2021/07/14 09:08:55;;;;;;;0.63;0.43;;;;;;;-142.37;100.00;59669.53;5041793;28;20022;-61
2021/07/14 09:11:21;;;;;;;0.45;0.30;;;;;;;-142.37;100.00;59669.53;5050079;28;20050;-62
2021/07/14 09:13:47;;;;;;;0.88;0.40;;;;;;;-142.37;100.00;59669.53;5044630;28;20048;-63
2021/07/14 09:16:32;;;;;;;5.47;0.43;;;;;;;-142.37;100.00;59669.53;5043537;28;20079;-61
2021/07/14 09:19:14;;;;;;;1.45;0.50;;;;;;;-142.37;100.00;59669.53;5053486;28;20052;-61
2021/07/14 09:21:43;;;;;;;3.88;0.52;;;;;;;-142.37;100.00;59669.53;5052241;28;20379;-62
2021/07/14 09:24:31;;;;;;;1.10;0.65;;;;;;;-142.37;100.00;59669.53;5047288;28;20096;-62
2021/07/14 09:26:57;;;;;;;3.13;0.45;;;;;;;-142.37;100.00;59669.53;5054376;28;20017;-61
2021/07/14 09:29:24;;;;;;;1.52;0.50;;;;;;;-142.37;100.00;59669.53;5053511;28;20063;-62
2021/07/14 09:31:50;;;;;;;1.02;0.50;;;;;;;-142.37;100.00;59669.53;5054457;28;20147;-64
2021/07/14 09:34:26;;;;;;;3.47;0.55;;;;;;;-142.37;100.00;59669.53;5053989;28;20024;-63
2021/07/14 09:36:55;;;;;;;0.85;0.40;;;;;;;-142.37;100.00;59669.53;5054009;28;20028;-63
2021/07/14 09:39:39;;;;;;;1.70;0.50;;;;;;;-142.37;100.00;59669.53;5053580;28;20028;-63
2021/07/14 09:42:12;;;;;;;0.35;0.30;;;;;;;-142.37;100.00;59669.53;5053914;28;20013;-63
2021/07/14 09:44:48;;;;;;;0.60;0.32;;;;;;;-142.37;100.00;59669.53;5054247;28;20087;-63
2021/07/14 09:47:14;;;;;;;0.68;0.43;;;;;;;-142.37;100.00;59669.53;5040204;28;20511;-62
2021/07/14 09:49:39;;;;;;;0.93;0.30;;;;;;;-142.37;100.00;59669.53;5052529;28;20076;-62
2021/07/14 09:52:14;;;;;;;0.55;0.30;;;;;;;-142.37;100.00;59669.53;5050457;28;20025;-62
2021/07/14 09:54:40;;;;;;;0.80;0.35;;;;;;;-142.37;100.00;59669.53;5051974;28;20562;-62
2021/07/14 09:57:12;;;;;;;0.88;0.30;;;;;;;-142.37;100.00;59669.53;5048782;28;20111;-62
2021/07/14 09:59:38;;;;;;;0.20;0.20;;;;;;;-142.37;100.00;59669.53;5052592;28;20550;-60
2021/07/14 10:02:05;;;;;;;1.33;0.32;;;;;;;-142.37;100.00;59669.53;5043854;28;20105;-63
2021/07/14 10:04:33;;;;;;;2.00;0.55;;;;;;;-142.37;100.00;59669.53;5033987;28;20037;-63
2021/07/14 10:07:05;;;;;;;0.40;0.32;;;;;;;-142.37;100.00;59669.53;5034399;28;20487;-61
2021/07/14 10:09:31;;;;;;;0.65;0.40;;;;;;;-142.37;100.00;59669.53;5034167;28;20055;-60
2021/07/14 10:12:24;;;;;;;0.80;0.30;;;;;;;-142.37;100.00;59669.53;5034020;28;20040;-61
2021/07/14 10:14:50;;;;;;;0.75;0.30;;;;;;;-142.37;100.00;59669.53;5033966;28;20479;-61
2021/07/14 10:17:35;;;;;;;0.50;0.32;;;;;;;-142.37;100.00;59669.53;5033780;28;20021;-61
2021/07/14 10:20:00;;;;;;;1.23;0.20;;;;;;;-142.37;100.00;59669.53;5033981;28;20029;-61
2021/07/14 10:22:26;;;;;;;0.40;0.20;;;;;;;-142.37;100.00;59669.53;5034005;28;20013;-61
2021/07/14 10:24:51;;;;;;;1.17;0.43;;;;;;;-142.37;100.00;59669.53;5032731;28;20029;-61
2021/07/14 10:27:17;;;;;;;0.65;0.28;;;;;;;-142.37;100.00;59669.53;5034010;28;20033;-61
2021/07/14 10:29:42;;;;;;;1.83;0.77;;;;;;;-142.37;100.00;59669.53;5033955;28;20388;-60
2021/07/14 10:32:08;;;;;;;1.25;0.40;;;;;;;-142.37;100.00;59669.53;5033668;28;20641;-61
2021/07/14 10:34:34;;;;;;;1.50;0.40;;;;;;;-142.37;100.00;59669.53;5033690;28;20029;-60
2021/07/14 10:37:00;;;;;;;0.50;0.40;;;;;;;-142.37;100.00;59669.53;5033337;28;20021;-61
2021/07/14 10:39:26;;;;;;;1.02;0.40;;;;;;;-142.37;100.00;59669.53;5033822;28;20468;-60
2021/07/14 10:41:53;;;;;;;0.47;0.47;;;;;;;-142.37;100.00;59669.53;5033464;28;20096;-61
2021/07/14 10:44:21;;;;;;;0.80;0.40;;;;;;;-142.37;100.00;59669.53;5033441;28;20041;-60
2021/07/14 10:46:46;;;;;;;0.75;0.45;;;;;;;-142.37;100.00;59669.53;5033450;28;20124;-61
2021/07/14 10:49:12;;;;;;;0.55;0.38;;;;;;;-142.37;100.00;59669.53;5035425;28;20120;-60
2021/07/14 10:51:38;;;;;;;0.32;0.30;;;;;;;-142.37;100.00;59669.53;5031531;28;20711;-60
2021/07/14 10:54:06;;;;;;;0.93;0.50;;;;;;;-142.37;100.00;59669.53;5031310;28;20128;-62
2021/07/14 10:56:43;;;;;;;1.60;0.40;;;;;;;-142.37;100.00;59669.53;5028376;28;20049;-60
2021/07/14 10:59:10;;;;;;;0.65;0.28;;;;;;;-142.37;100.00;59669.53;5033281;28;20518;-61
2021/07/14 11:01:48;;;;;;;0.57;0.38;;;;;;;-142.37;100.00;59669.53;5033349;28;20033;-60
2021/07/14 11:04:33;;;;;;;0.82;0.50;;;;;;;-142.37;100.00;59669.53;5032958;28;20037;-61
2021/07/14 11:07:07;;;;;;;0.50;0.20;;;;;;;-142.37;100.00;59669.53;5033235;28;20021;-60
2021/07/14 11:09:40;;;;;;;1.45;0.55;;;;;;;-142.37;100.00;59669.53;5033345;28;20060;-61
2021/07/14 11:12:08;;;;;;;0.50;0.40;;;;;;;-142.37;100.00;59669.53;5040591;28;20029;-61
2021/07/14 11:14:40;;;;;;;0.90;0.32;;;;;;;-142.37;100.00;59669.53;5035865;28;20032;-60
2021/07/14 11:17:07;;;;;;;0.95;0.30;;;;;;;-142.37;100.00;59669.53;5034008;28;20025;-61
2021/07/14 11:19:42;;;;;;;1.35;0.40;;;;;;;-142.37;100.00;59669.53;5033199;28;20074;-61
2021/07/14 11:22:08;;;;;;;0.98;0.40;;;;;;;-142.37;100.00;59669.53;5033965;28;20017;-60